createdAt,value
2018-04-10T00:00:07.371Z,1.60
2018-04-10T00:02:10.780Z,2.13
2018-04-10T00:04:14.003Z,2.10
2018-04-10T00:06:17.400Z,2.53
2018-04-10T00:08:20.295Z,1.97
2018-04-10T00:10:23.681Z,2.53
2018-04-10T00:12:27.120Z,2.20
2018-04-10T00:14:30.503Z,2.00
2018-04-10T00:16:33.955Z,1.70
2018-04-10T00:18:37.349Z,3.13
2018-04-10T00:20:40.736Z,2.03
2018-04-10T00:22:45.129Z,2.03
2018-04-10T00:24:48.522Z,2.20
2018-04-10T00:26:51.908Z,2.13
2018-04-10T00:28:55.288Z,2.57
2018-04-10T00:30:58.678Z,2.60
2018-04-10T00:33:02.105Z,2.33
2018-04-10T00:35:05.279Z,2.47
2018-04-10T00:37:08.660Z,1.97
2018-04-10T00:39:12.038Z,2.27
2018-04-10T00:41:15.427Z,1.90
2018-04-10T00:43:18.907Z,2.07
2018-04-10T00:45:22.286Z,2.00
2018-04-10T00:47:25.665Z,2.37
2018-04-10T00:49:29.042Z,2.60
2018-04-10T00:51:32.432Z,2.30
2018-04-10T00:53:37.178Z,2.10
2018-04-10T00:55:40.558Z,2.03
2018-04-10T00:57:43.949Z,2.70
2018-04-10T00:59:47.331Z,1.70
2018-04-10T01:01:50.711Z,2.20
2018-04-10T01:03:54.092Z,1.83
2018-04-10T01:05:57.466Z,2.90
2018-04-10T01:08:00.879Z,2.30
2018-04-10T01:10:04.025Z,1.67
2018-04-10T01:12:07.432Z,2.50
2018-04-10T01:14:10.829Z,2.30
2018-04-10T01:16:14.311Z,2.07
2018-04-10T01:18:17.703Z,2.10
2018-04-10T01:20:21.094Z,1.80
2018-04-10T01:22:24.493Z,2.13
2018-04-10T01:24:27.897Z,3.33
2018-04-10T01:26:31.292Z,1.67
2018-04-10T01:28:34.706Z,2.30
2018-04-10T01:30:38.077Z,1.70
2018-04-10T01:32:41.527Z,2.80
2018-04-10T01:34:44.906Z,1.83
2018-04-10T01:36:48.287Z,1.90
2018-04-10T01:38:51.686Z,2.63
2018-04-10T01:40:55.060Z,1.90
2018-04-10T01:42:58.439Z,2.30
2018-04-10T01:45:02.761Z,1.80
2018-04-10T01:47:06.140Z,1.80
2018-04-10T01:49:09.520Z,1.70
2018-04-10T01:51:12.913Z,2.20
2018-04-10T01:53:16.300Z,1.70
2018-04-10T01:55:19.673Z,1.80
2018-04-10T01:57:23.052Z,2.27
2018-04-10T01:59:26.425Z,1.90
2018-04-10T02:01:29.806Z,1.97
2018-04-10T02:03:33.182Z,1.80
2018-04-10T02:05:36.567Z,1.87
2018-04-10T02:07:39.952Z,1.70
2018-04-10T02:09:43.396Z,1.83
2018-04-10T02:11:46.792Z,1.70
2018-04-10T02:13:50.161Z,2.10
2018-04-10T02:15:53.548Z,1.53
2018-04-10T02:17:56.932Z,1.60
2018-04-10T02:20:00.350Z,1.60
2018-04-10T02:22:03.737Z,1.47
2018-04-10T02:24:07.108Z,2.17
2018-04-10T02:26:10.535Z,2.10
2018-04-10T02:28:13.950Z,2.03
2018-04-10T02:30:17.490Z,1.83
2018-04-10T02:32:20.867Z,1.60
2018-04-10T02:34:24.247Z,2.63
2018-04-10T02:36:27.645Z,1.73
2018-04-10T02:38:31.080Z,1.73
2018-04-10T02:40:34.478Z,1.80
2018-04-10T02:42:37.645Z,1.73
2018-04-10T02:44:41.031Z,2.20
2018-04-10T02:46:44.401Z,1.60
2018-04-10T02:48:47.775Z,2.57
2018-04-10T02:50:51.156Z,1.73
2018-04-10T02:52:54.559Z,2.50
2018-04-10T02:54:57.936Z,1.70
2018-04-10T02:57:01.312Z,1.70
2018-04-10T02:59:04.700Z,1.90
2018-04-10T03:01:08.078Z,1.97
2018-04-10T03:03:11.471Z,1.80
2018-04-10T03:05:14.847Z,2.17
2018-04-10T03:07:18.238Z,1.50
2018-04-10T03:09:21.608Z,2.30
2018-04-10T03:11:25.105Z,1.40
2018-04-10T03:13:28.479Z,1.50
2018-04-10T03:15:31.883Z,1.50
2018-04-10T03:17:35.269Z,2.47
2018-04-10T03:19:38.650Z,1.60
2018-04-10T03:21:42.031Z,1.77
2018-04-10T03:23:45.412Z,1.40
2018-04-10T03:25:48.803Z,1.73
2018-04-10T03:27:51.962Z,1.57
2018-04-10T03:29:55.356Z,1.70
2018-04-10T03:31:58.731Z,1.53
2018-04-10T03:34:02.109Z,1.50
2018-04-10T03:36:05.541Z,1.50
2018-04-10T03:38:08.953Z,1.53
2018-04-10T03:40:12.439Z,1.77
2018-04-10T03:42:15.829Z,1.70
2018-04-10T03:44:19.202Z,1.30
2018-04-10T03:46:22.596Z,1.40
2018-04-10T03:48:25.972Z,1.90
2018-04-10T03:50:29.376Z,1.97
2018-04-10T03:52:32.751Z,1.40
2018-04-10T03:54:36.129Z,1.40
2018-04-10T03:56:39.504Z,1.90
2018-04-10T03:58:42.879Z,1.53
2018-04-10T04:00:46.259Z,1.60
2018-04-10T04:02:49.650Z,1.57
2018-04-10T04:04:53.044Z,1.47
2018-04-10T04:06:56.436Z,1.70
2018-04-10T04:08:59.869Z,1.40
2018-04-10T04:11:03.431Z,1.90
2018-04-10T04:13:06.806Z,1.60
2018-04-10T04:15:09.973Z,2.30
2018-04-10T04:17:24.486Z,1.37
2018-04-10T04:22:30.450Z,1.67
2018-04-10T04:24:33.836Z,1.50
2018-04-10T04:26:37.532Z,1.62
2018-04-10T04:28:40.988Z,2.17
2018-04-10T04:30:44.362Z,1.27
2018-04-10T04:32:47.753Z,1.60
2018-04-10T04:34:51.135Z,1.47
2018-04-10T04:36:54.519Z,1.47
2018-04-10T04:38:57.898Z,1.30
2018-04-10T04:41:01.053Z,1.50
2018-04-10T04:43:04.218Z,1.90
2018-04-10T04:45:07.595Z,2.43
2018-04-10T04:47:10.978Z,2.33
2018-04-10T04:49:14.351Z,1.50
2018-04-10T04:51:17.732Z,1.73
2018-04-10T04:53:21.114Z,1.43
2018-04-10T04:55:24.493Z,1.63
2018-04-10T04:57:27.867Z,1.30
2018-04-10T04:59:31.807Z,2.27
2018-04-10T05:01:35.261Z,1.40
2018-04-10T05:03:38.655Z,2.03
2018-04-10T05:05:42.113Z,1.30
2018-04-10T05:07:45.520Z,2.40
2018-04-10T05:09:48.954Z,1.77
2018-04-10T05:11:52.476Z,3.30
2018-04-10T05:13:55.891Z,1.37
2018-04-10T05:15:59.273Z,1.67
2018-04-10T05:18:02.913Z,1.63
2018-04-10T05:20:06.385Z,1.37
2018-04-10T05:22:10.125Z,1.27
2018-04-10T05:24:13.511Z,1.90
2018-04-10T05:26:16.664Z,2.03
2018-04-10T05:28:20.174Z,1.40
2018-04-10T05:30:23.552Z,2.53
2018-04-10T05:32:26.928Z,4.23
2018-04-10T05:34:30.304Z,1.90
2018-04-10T05:36:33.474Z,1.43
2018-04-10T05:38:37.335Z,1.73
2018-04-10T05:40:40.983Z,2.73
2018-04-10T05:42:44.236Z,2.63
2018-04-10T05:44:47.616Z,2.30
2018-04-10T05:46:51.057Z,2.37
2018-04-10T05:48:54.433Z,2.27
2018-04-10T05:50:57.808Z,2.33
2018-04-10T05:53:01.176Z,1.90
2018-04-10T05:55:04.572Z,1.67
2018-04-10T05:57:07.960Z,2.37
2018-04-10T05:59:11.335Z,1.97
2018-04-10T06:01:14.908Z,1.60
2018-04-10T06:03:18.295Z,2.47
2018-04-10T06:05:21.679Z,1.90
2018-04-10T06:07:25.080Z,1.50
2018-04-10T06:09:28.469Z,2.53
2018-04-10T06:11:31.851Z,2.43
2018-04-10T06:13:35.244Z,1.40
2018-04-10T06:15:38.636Z,1.90
2018-04-10T06:17:42.012Z,1.40
2018-04-10T06:19:45.395Z,2.37
2018-04-10T06:21:48.772Z,1.70
2018-04-10T06:23:52.160Z,2.10
2018-04-10T06:25:55.551Z,1.30
2018-04-10T06:27:58.949Z,2.13
2018-04-10T06:30:02.337Z,1.50
2018-04-10T06:32:05.734Z,1.70
2018-04-10T06:34:09.119Z,1.97
2018-04-10T06:36:12.494Z,1.53
2018-04-10T06:38:15.869Z,1.40
2018-04-10T06:40:19.259Z,1.30
2018-04-10T06:42:22.651Z,1.70
2018-04-10T06:44:26.029Z,1.70
2018-04-10T06:46:29.413Z,2.33
2018-04-10T06:48:32.803Z,1.50
2018-04-10T06:50:36.240Z,1.47
2018-04-10T06:52:39.636Z,1.90
2018-04-10T06:54:43.028Z,1.33
2018-04-10T06:56:46.446Z,2.27
2018-04-10T06:58:49.834Z,1.53
2018-04-10T07:00:53.263Z,1.67
2018-04-10T07:02:56.431Z,1.90
2018-04-10T07:05:00.694Z,1.60
2018-04-10T07:07:04.121Z,2.20
2018-04-10T07:09:07.501Z,1.60
2018-04-10T07:11:10.897Z,1.43
2018-04-10T07:13:14.322Z,2.20
2018-04-10T07:15:17.701Z,1.70
2018-04-10T07:17:21.127Z,1.90
2018-04-10T07:19:24.509Z,2.37
2018-04-10T07:21:27.888Z,1.47
2018-04-10T07:23:31.311Z,1.63
2018-04-10T07:25:34.702Z,1.83
2018-04-10T07:27:38.118Z,1.40
2018-04-10T07:29:41.492Z,1.53
2018-04-10T07:31:44.866Z,1.90
2018-04-10T07:33:48.280Z,3.27
2018-04-10T07:35:51.673Z,1.30
2018-04-10T07:37:55.091Z,1.70
2018-04-10T07:39:58.483Z,1.30
2018-04-10T07:42:01.867Z,1.93
2018-04-10T07:44:05.281Z,1.60
2018-04-10T07:46:08.683Z,1.30
2018-04-10T07:48:12.065Z,2.30
2018-04-10T07:50:15.473Z,1.70
2018-04-10T07:52:18.847Z,1.47
2018-04-10T07:54:22.254Z,1.77
2018-04-10T07:56:25.649Z,1.63
2018-04-10T07:58:29.040Z,1.40
2018-04-10T08:00:32.516Z,1.40
2018-04-10T08:02:35.946Z,2.27
2018-04-10T08:04:39.526Z,1.53
2018-04-10T08:06:42.911Z,1.33
2018-04-10T08:08:46.293Z,1.33
2018-04-10T08:10:49.703Z,2.67
2018-04-10T08:12:53.080Z,1.30
2018-04-10T08:14:56.453Z,2.03
2018-04-10T08:16:59.869Z,2.10
2018-04-10T08:19:03.241Z,1.50
2018-04-10T08:21:06.714Z,2.27
2018-04-10T08:23:09.883Z,1.60
2018-04-10T08:25:13.261Z,1.60
2018-04-10T08:27:16.675Z,2.17
2018-04-10T08:29:20.053Z,1.40
2018-04-10T08:31:23.462Z,1.60
2018-04-10T08:33:26.853Z,2.90
2018-04-10T08:35:30.242Z,1.33
2018-04-10T08:37:33.654Z,1.87
2018-04-10T08:39:37.039Z,1.37
2018-04-10T08:41:40.417Z,1.50
2018-04-10T08:43:43.828Z,1.50
2018-04-10T08:45:47.208Z,1.40
2018-04-10T08:47:50.614Z,1.93
2018-04-10T08:49:53.767Z,2.03
2018-04-10T08:51:57.141Z,1.90
2018-04-10T08:54:00.556Z,1.57
2018-04-10T08:56:03.944Z,1.57
2018-04-10T08:58:07.322Z,1.73
2018-04-10T09:00:10.739Z,2.37
2018-04-10T09:02:14.158Z,1.57
2018-04-10T09:04:17.756Z,1.70
2018-04-10T09:06:21.146Z,1.73
2018-04-10T09:08:24.555Z,2.00
2018-04-10T09:10:27.966Z,1.63
2018-04-10T09:12:31.339Z,1.37
2018-04-10T09:14:34.777Z,2.47
2018-04-10T09:16:38.154Z,2.30
2018-04-10T09:18:41.572Z,2.37
2018-04-10T09:20:44.978Z,1.57
2018-04-10T09:22:48.367Z,1.97
2018-04-10T09:24:51.766Z,1.60
2018-04-10T09:26:55.199Z,1.97
2018-04-10T09:28:58.573Z,2.33
2018-04-10T09:31:02.007Z,2.10
2018-04-10T09:33:05.395Z,3.30
2018-04-10T09:35:08.772Z,2.00
2018-04-10T09:37:12.166Z,2.00
2018-04-10T09:39:15.543Z,2.13
2018-04-10T09:41:18.970Z,2.77
2018-04-10T09:43:22.366Z,2.10
2018-04-10T09:45:25.748Z,2.10
2018-04-10T09:47:29.158Z,2.07
2018-04-10T09:49:32.860Z,2.67
2018-04-10T09:51:36.244Z,2.33
2018-04-10T09:53:39.611Z,1.50
2018-04-10T09:55:42.995Z,2.57
2018-04-10T09:57:46.409Z,2.23
2018-04-10T09:59:49.791Z,2.33
2018-04-10T10:01:53.213Z,2.13
2018-04-10T10:03:56.685Z,1.90
2018-04-10T10:06:00.069Z,1.80
2018-04-10T10:08:03.489Z,2.30
2018-04-10T10:10:06.863Z,2.07
2018-04-10T10:12:10.272Z,2.30
2018-04-10T10:14:13.649Z,2.33
2018-04-10T10:16:17.033Z,1.80
2018-04-10T10:18:20.455Z,2.20
2018-04-10T10:20:23.855Z,1.83
2018-04-10T10:22:27.260Z,2.93
2018-04-10T10:24:32.409Z,1.93
2018-04-10T10:26:36.305Z,1.97
2018-04-10T10:28:41.151Z,1.60
2018-04-10T10:30:45.953Z,1.90
2018-04-10T10:32:50.081Z,1.93
2018-04-10T10:34:53.778Z,1.97
2018-04-10T10:36:57.182Z,1.87
2018-04-10T10:39:00.575Z,1.60
2018-04-10T10:41:04.040Z,2.13
2018-04-10T10:43:07.452Z,2.13
2018-04-10T10:45:10.826Z,1.90
2018-04-10T10:47:14.201Z,1.87
2018-04-10T10:49:17.701Z,1.60
2018-04-10T10:51:21.094Z,2.50
2018-04-10T10:53:24.525Z,1.83
2018-04-10T10:55:27.931Z,2.03
2018-04-10T10:57:31.338Z,1.57
2018-04-10T10:59:34.712Z,2.33
2018-04-10T11:01:38.099Z,1.60
2018-04-10T11:03:41.287Z,2.47
2018-04-10T11:05:44.668Z,1.53
2018-04-10T11:07:48.058Z,1.70
2018-04-10T11:09:51.206Z,2.10
2018-04-10T11:11:54.654Z,2.00
2018-04-10T11:13:58.065Z,2.00
2018-04-10T11:16:01.218Z,2.20
2018-04-10T11:18:04.616Z,2.00
2018-04-10T11:20:08.341Z,1.57
2018-04-10T11:22:11.917Z,1.63
2018-04-10T11:24:15.321Z,1.70
2018-04-10T11:26:18.792Z,1.70
2018-04-10T11:28:22.220Z,1.70
2018-04-10T11:30:25.619Z,1.40
2018-04-10T11:32:29.243Z,1.97
2018-04-10T11:34:32.740Z,1.30
2018-04-10T11:36:36.123Z,1.90
2018-04-10T11:38:39.618Z,2.00
2018-04-10T11:40:43.044Z,1.60
2018-04-10T11:42:46.422Z,1.30
2018-04-10T11:44:49.808Z,2.00
2018-04-10T11:46:53.212Z,1.80
2018-04-10T11:48:56.609Z,1.77
2018-04-10T11:51:00.031Z,1.80
2018-04-10T11:53:03.191Z,1.50
2018-04-10T11:55:06.558Z,1.40
2018-04-10T11:57:09.971Z,1.60
2018-04-10T11:59:13.431Z,1.37
2018-04-10T12:01:16.858Z,1.60
2018-04-10T12:03:20.243Z,1.73
2018-04-10T12:05:23.618Z,1.47
2018-04-10T12:07:27.216Z,1.70
2018-04-10T12:09:30.687Z,1.70
2018-04-10T12:11:34.171Z,1.50
2018-04-10T12:13:37.559Z,1.50
2018-04-10T12:15:40.952Z,1.50
2018-04-10T12:17:44.357Z,2.47
2018-04-10T12:19:47.750Z,1.63
2018-04-10T12:21:51.188Z,1.67
2018-04-10T12:23:54.602Z,1.77
2018-04-10T12:25:58.092Z,1.43
2018-04-10T12:28:01.535Z,1.47
2018-04-10T12:30:04.471Z,1.73
2018-04-10T12:32:07.869Z,1.67
2018-04-10T12:34:11.247Z,2.13
2018-04-10T12:36:14.639Z,1.60
2018-04-10T12:38:18.078Z,1.50
2018-04-10T12:40:21.478Z,1.50
2018-04-10T12:42:24.905Z,1.53
2018-04-10T12:44:29.276Z,1.60
2018-04-10T12:46:32.701Z,1.50
2018-04-10T12:48:36.143Z,1.87
2018-04-10T12:50:39.690Z,2.47
2018-04-10T12:52:43.186Z,2.00
2018-04-10T12:54:47.251Z,1.50
2018-04-10T12:56:50.668Z,1.90
2018-04-10T12:58:54.081Z,2.73
2018-04-10T13:00:57.455Z,4.57
2018-04-10T13:03:01.036Z,1.77
2018-04-10T13:05:04.546Z,1.70
2018-04-10T13:07:07.923Z,4.83
2018-04-10T13:09:11.742Z,5.90
2018-04-10T13:11:15.424Z,9.67
2018-04-10T13:13:18.906Z,21.27
2018-04-10T13:15:22.129Z,26.57
2018-04-10T13:17:25.846Z,34.63
2018-04-10T13:19:29.720Z,38.20
2018-04-10T13:21:33.224Z,42.63
2018-04-10T13:23:36.765Z,44.53
2018-04-10T13:25:40.195Z,47.93
2018-04-10T13:27:43.713Z,51.43
2018-04-10T13:29:47.116Z,49.23
2018-04-10T13:31:50.504Z,44.27
2018-04-10T13:33:53.899Z,50.03
2018-04-10T13:35:57.314Z,45.23
2018-04-10T13:38:00.707Z,41.90
2018-04-10T13:40:03.908Z,45.50
2018-04-10T13:42:07.314Z,42.57
2018-04-10T13:44:10.702Z,47.37
2018-04-10T13:46:14.133Z,45.10
2018-04-10T13:48:17.608Z,44.50
2018-04-10T13:50:21.053Z,41.27
2018-04-10T13:52:24.552Z,48.23
2018-04-10T13:54:27.943Z,39.20
2018-04-10T13:56:31.365Z,46.40
2018-04-10T13:58:34.775Z,42.10
2018-04-10T14:00:38.163Z,43.00
2018-04-10T14:02:41.759Z,39.97
2018-04-10T14:04:44.926Z,44.97
2018-04-10T14:06:48.359Z,40.43
2018-04-10T14:08:51.772Z,39.10
2018-04-10T14:10:55.160Z,33.67
2018-04-10T14:12:58.574Z,36.30
2018-04-10T14:15:01.753Z,35.47
2018-04-10T14:17:05.054Z,34.00
2018-04-10T14:19:08.447Z,37.43
2018-04-10T14:21:11.924Z,28.43
2018-04-10T14:23:15.338Z,33.57
2018-04-10T14:25:18.543Z,33.17
2018-04-10T14:27:21.771Z,34.40
2018-04-10T14:29:26.721Z,33.23
2018-04-10T14:31:30.243Z,29.07
2018-04-10T14:33:33.515Z,30.03
2018-04-10T14:35:37.053Z,29.03
2018-04-10T14:37:40.444Z,29.63
2018-04-10T14:39:43.638Z,28.60
2018-04-10T14:41:47.029Z,28.43
2018-04-10T14:43:50.561Z,29.77
2018-04-10T14:45:53.960Z,29.57
2018-04-10T14:47:57.425Z,26.37
2018-04-10T14:50:00.911Z,25.87
2018-04-10T14:52:04.098Z,23.13
2018-04-10T14:54:07.308Z,22.37
2018-04-10T14:56:10.704Z,26.60
2018-04-10T14:58:13.877Z,24.93
2018-04-10T15:00:17.398Z,23.67
2018-04-10T15:02:20.957Z,23.03
2018-04-10T15:04:26.014Z,21.37
2018-04-10T15:06:29.437Z,23.13
2018-04-10T15:08:34.469Z,24.23
2018-04-10T15:10:38.136Z,22.83
2018-04-10T15:12:41.561Z,22.67
2018-04-10T15:14:45.256Z,23.70
2018-04-10T15:16:48.656Z,22.07
2018-04-10T15:18:52.055Z,20.73
2018-04-10T15:20:55.444Z,16.90
2018-04-10T15:22:58.662Z,22.00
2018-04-10T15:25:02.076Z,22.13
2018-04-10T15:27:05.460Z,18.13
2018-04-10T15:29:08.949Z,20.97
2018-04-10T15:31:12.347Z,19.87
2018-04-10T15:33:18.198Z,20.33
2018-04-10T15:35:21.626Z,21.00
2018-04-10T15:37:25.074Z,17.33
2018-04-10T15:39:28.544Z,20.13
2018-04-10T15:41:32.004Z,18.10
2018-04-10T15:43:35.470Z,17.43
2018-04-10T15:45:38.683Z,17.20
2018-04-10T15:47:42.170Z,18.57
2018-04-10T15:49:45.807Z,15.30
2018-04-10T15:51:49.365Z,19.87
2018-04-10T15:53:54.092Z,16.80
2018-04-10T15:55:57.619Z,16.30
2018-04-10T15:58:01.456Z,18.40
2018-04-10T16:00:04.910Z,17.47
2018-04-10T16:02:08.390Z,16.50
2018-04-10T16:04:11.821Z,18.23
2018-04-10T16:06:15.232Z,16.03
2018-04-10T16:08:18.715Z,16.43
2018-04-10T16:10:21.989Z,16.53
2018-04-10T16:12:25.422Z,14.30
2018-04-10T16:14:28.615Z,16.63
2018-04-10T16:16:32.010Z,17.90
2018-04-10T16:18:35.412Z,16.73
2018-04-10T16:20:39.770Z,15.73
2018-04-10T16:22:43.307Z,14.60
2018-04-10T16:24:46.773Z,18.13
2018-04-10T16:26:50.174Z,14.03
2018-04-10T16:28:53.629Z,13.07
2018-04-10T16:31:01.285Z,17.23
2018-04-10T16:33:10.179Z,15.13
2018-04-10T16:35:17.891Z,11.30
2018-04-10T16:37:28.036Z,15.27
2018-04-10T16:39:34.652Z,11.53
2018-04-10T16:41:43.535Z,12.53
2018-04-10T16:43:53.565Z,13.33
2018-04-10T16:46:02.102Z,13.90
2018-04-10T16:48:15.668Z,12.17
2018-04-10T17:18:13.441Z,11.13
2018-04-10T17:30:15.092Z,10.40
2018-04-10T17:32:18.536Z,8.33
2018-04-10T17:34:22.374Z,12.70
2018-04-10T17:36:25.761Z,10.37
2018-04-10T17:38:29.176Z,10.00
2018-04-10T17:40:32.329Z,9.83
2018-04-10T17:42:35.751Z,10.80
2018-04-10T17:44:39.139Z,10.80
2018-04-10T17:46:42.348Z,10.83
2018-04-10T17:48:45.767Z,10.33
2018-04-10T17:50:49.559Z,9.83
2018-04-10T17:52:53.182Z,10.17
2018-04-10T17:54:56.559Z,8.93
2018-04-10T17:56:59.951Z,10.20
2018-04-10T17:59:03.356Z,8.00
2018-04-10T18:01:06.738Z,8.27
2018-04-10T18:03:10.237Z,11.07
2018-04-10T18:05:13.628Z,9.03
2018-04-10T18:07:17.022Z,10.83
2018-04-10T18:09:20.410Z,9.73
2018-04-10T18:11:23.805Z,9.13
2018-04-10T18:13:27.057Z,8.93
2018-04-10T18:15:30.468Z,8.10
2018-04-10T18:17:34.043Z,7.27
2018-04-10T18:19:37.493Z,10.13
2018-04-10T18:21:40.988Z,8.60
2018-04-10T18:23:44.448Z,9.53
2018-04-10T18:25:47.856Z,7.03
2018-04-10T18:27:51.262Z,8.53
2018-04-10T18:29:54.720Z,10.03
2018-04-10T18:31:58.099Z,8.63
2018-04-10T18:34:01.569Z,10.67
2018-04-10T18:36:04.959Z,7.17
2018-04-10T18:38:08.625Z,8.30
2018-04-10T18:40:12.623Z,6.00
2018-04-10T18:42:16.445Z,6.43
2018-04-10T18:44:20.299Z,7.47
2018-04-10T18:46:23.793Z,6.30
2018-04-10T18:48:27.181Z,9.80
2018-04-10T18:50:30.878Z,7.50
2018-04-10T18:52:34.260Z,6.40
2018-04-10T18:54:38.538Z,6.73
2018-04-10T18:56:42.134Z,5.47
2018-04-10T18:58:46.150Z,6.07
2018-04-10T19:00:49.526Z,7.53
2018-04-10T19:02:54.686Z,7.80
2018-04-10T19:04:58.254Z,6.73
2018-04-10T19:07:01.646Z,6.67
2018-04-10T19:09:04.393Z,5.83
2018-04-10T19:11:07.825Z,7.13
2018-04-10T19:13:11.279Z,5.17
2018-04-10T19:15:14.694Z,5.50
2018-04-10T19:17:18.206Z,5.13
2018-04-10T19:19:21.623Z,5.73
2018-04-10T19:21:25.129Z,5.57
2018-04-10T19:23:28.512Z,5.37
2018-04-10T19:25:31.909Z,6.40
2018-04-10T19:27:35.298Z,7.47
2018-04-10T19:29:41.929Z,8.90
2018-04-10T19:31:45.492Z,5.40
2018-04-10T19:33:49.139Z,9.17
2018-04-10T19:35:52.517Z,6.27
2018-04-10T19:37:55.944Z,6.20
2018-04-10T19:39:59.330Z,5.50
2018-04-10T19:42:02.823Z,4.97
2018-04-10T19:44:06.206Z,5.40
2018-04-10T19:46:09.823Z,5.63
2018-04-10T19:48:13.203Z,6.63
2018-04-10T19:50:16.469Z,5.27
2018-04-10T19:52:19.882Z,7.30
2018-04-10T19:54:23.044Z,5.33
2018-04-10T19:56:26.193Z,4.53
2018-04-10T19:58:29.577Z,5.97
2018-04-10T20:00:32.957Z,5.60
2018-04-10T20:02:37.356Z,5.70
2018-04-10T20:04:40.729Z,4.97
2018-04-10T20:06:44.153Z,3.93
2018-04-10T20:08:47.548Z,4.63
2018-04-10T20:10:50.945Z,4.60
2018-04-10T20:12:54.104Z,4.87
2018-04-10T20:14:57.512Z,4.87
2018-04-10T20:17:00.926Z,3.80
2018-04-10T20:19:04.338Z,5.07
2018-04-10T20:21:07.704Z,4.17
2018-04-10T20:23:11.081Z,4.37
2018-04-10T20:25:14.451Z,4.80
2018-04-10T20:27:17.912Z,5.73
2018-04-10T20:29:21.560Z,6.07
2018-04-10T20:31:24.936Z,4.50
2018-04-10T20:33:28.311Z,3.87
2018-04-10T20:35:31.687Z,3.93
2018-04-10T20:37:35.111Z,4.77
2018-04-10T20:39:38.503Z,3.30
2018-04-10T20:41:41.884Z,7.17
2018-04-10T20:43:45.264Z,4.77
2018-04-10T20:45:48.654Z,3.37
2018-04-10T20:47:52.119Z,4.47
2018-04-10T20:49:57.423Z,5.07
2018-04-10T20:52:01.333Z,4.27
2018-04-10T20:54:04.727Z,4.60
2018-04-10T20:56:08.152Z,3.43
2018-04-10T20:58:11.730Z,4.53
2018-04-10T21:00:15.272Z,4.60
2018-04-10T21:02:18.702Z,4.67
2018-04-10T21:04:22.232Z,3.53
2018-04-10T21:06:25.622Z,3.97
2018-04-10T21:08:29.161Z,4.87
2018-04-10T21:10:32.546Z,4.13
2018-04-10T21:12:35.956Z,3.73
2018-04-10T21:14:39.434Z,3.70
2018-04-10T21:16:42.821Z,3.90
2018-04-10T21:18:46.324Z,3.90
2018-04-10T21:20:49.717Z,2.77
2018-04-10T21:22:53.111Z,4.37
2018-04-10T21:24:59.314Z,3.60
2018-04-10T21:27:05.698Z,5.43
2018-04-10T21:29:11.750Z,3.90
2018-04-10T21:31:15.184Z,4.27
2018-04-10T21:33:18.678Z,4.87
2018-04-10T21:35:22.291Z,2.90
2018-04-10T21:37:25.774Z,3.67
2018-04-10T21:39:29.191Z,3.57
2018-04-10T21:41:32.566Z,4.07
2018-04-10T21:43:36.059Z,3.67
2018-04-10T21:45:39.512Z,4.00
2018-04-10T21:47:42.914Z,4.30
2018-04-10T21:49:46.373Z,3.73
2018-04-10T21:51:50.411Z,3.30
2018-04-10T21:53:53.846Z,2.90
2018-04-10T21:55:57.292Z,3.53
2018-04-10T21:58:00.735Z,3.50
2018-04-10T22:00:04.312Z,2.97
2018-04-10T22:02:07.706Z,3.43
2018-04-10T22:04:11.095Z,4.13
2018-04-10T22:06:15.104Z,3.20
2018-04-10T22:08:19.917Z,3.10
2018-04-10T22:10:23.356Z,2.80
2018-04-10T22:12:26.788Z,3.53
2018-04-10T22:14:30.272Z,3.10
2018-04-10T22:16:33.655Z,3.23
2018-04-10T22:18:37.180Z,2.93
2018-04-10T22:20:40.587Z,3.03
2018-04-10T22:22:44.021Z,2.60
2018-04-10T22:24:47.397Z,2.53
2018-04-10T22:26:50.791Z,2.40
2018-04-10T22:28:54.168Z,3.80
2018-04-10T22:30:57.594Z,2.77
2018-04-10T22:33:00.984Z,3.20
2018-04-10T22:35:05.884Z,3.27
2018-04-10T22:37:09.261Z,3.70
2018-04-10T22:39:12.636Z,2.97
2018-04-10T22:41:16.039Z,3.67
2018-04-10T22:43:19.526Z,2.70
2018-04-10T22:45:22.683Z,3.50
2018-04-10T22:47:26.131Z,3.20
2018-04-10T22:49:29.284Z,3.40
2018-04-10T22:51:32.508Z,3.27
2018-04-10T22:53:35.881Z,3.03
2018-04-10T22:55:39.056Z,3.77
2018-04-10T22:57:42.452Z,2.80
2018-04-10T22:59:45.871Z,3.10
2018-04-10T23:01:49.254Z,2.53
2018-04-10T23:03:52.644Z,3.60
2018-04-10T23:05:56.020Z,2.93
2018-04-10T23:07:59.405Z,2.73
2018-04-10T23:10:02.836Z,2.83
2018-04-10T23:12:05.995Z,2.50
2018-04-10T23:14:09.370Z,3.40
2018-04-10T23:16:12.556Z,3.83
2018-04-10T23:18:15.941Z,2.70
2018-04-10T23:20:19.439Z,2.83
2018-04-10T23:22:22.858Z,2.80
2018-04-10T23:24:26.075Z,2.80
2018-04-10T23:26:29.452Z,2.63
2018-04-10T23:28:32.845Z,2.67
2018-04-10T23:30:36.240Z,3.63
2018-04-10T23:32:39.640Z,3.17
2018-04-10T23:34:43.033Z,2.80
2018-04-10T23:36:46.220Z,3.17
2018-04-10T23:38:49.630Z,3.23
2018-04-10T23:40:52.794Z,3.73
2018-04-10T23:42:55.959Z,3.27
2018-04-10T23:44:59.109Z,3.17
2018-04-10T23:47:02.538Z,3.30
2018-04-10T23:49:05.920Z,2.80
2018-04-10T23:51:09.352Z,2.37
2018-04-10T23:53:12.744Z,2.87
2018-04-10T23:55:16.177Z,2.73
2018-04-10T23:57:19.563Z,3.47
2018-04-10T23:59:23.105Z,2.97
